Time;durP1;ratioP1;P1;durP2;ratioP2;P2;SDS_P1;SDS_P2;PMS_P1;PMS_P2;Temp;Humidity;BMP_temperature;BMP_pressure;BME280_temperature;BME280_humidity;BME280_pressure;Samples;Min_cycle;Max_cycle;Signal;HPM_P1;HPM_P2
2023/01/14 00:01:50;;;;;;;0.00;0.00;;;;;;;;;;5115262;28;20039;-82
2023/01/14 00:04:16;;;;;;;0.00;0.00;;;;;;;;;;5132088;27;20047;-82
2023/01/14 00:06:42;;;;;;;0.00;0.00;;;;;;;;;;5133582;28;20038;-82
2023/01/14 00:09:11;;;;;;;0.00;0.00;;;;;;;;;;5132347;28;20049;-82
2023/01/14 00:11:46;;;;;;;0.00;0.00;;;;;;;;;;5133740;27;20043;-83
2023/01/14 00:14:17;;;;;;;0.00;0.00;;;;;;;;;;5123320;27;20441;-82
2023/01/14 00:16:43;;;;;;;2.28;1.40;;;;;;;;;;5091312;28;20370;-82
2023/01/14 00:19:09;;;;;;;0.00;0.00;;;;;;;;;;5091475;28;20451;-82
2023/01/14 00:21:36;;;;;;;0.00;0.00;;;;;;;;;;5074465;28;20055;-82
2023/01/14 00:24:02;;;;;;;0.00;0.00;;;;;;;;;;5091096;28;20111;-82
2023/01/14 00:26:28;;;;;;;0.00;0.00;;;;;;;;;;5091267;28;20051;-82
2023/01/14 00:28:54;;;;;;;0.00;0.00;;;;;;;;;;5091062;28;20044;-82
2023/01/14 00:31:22;;;;;;;0.00;0.00;;;;;;;;;;5091257;28;20040;-82
2023/01/14 00:33:48;;;;;;;0.00;0.00;;;;;;;;;;5091062;28;20044;-82
2023/01/14 00:36:15;;;;;;;0.00;0.00;;;;;;;;;;5090943;28;20048;-82
2023/01/14 00:38:42;;;;;;;0.00;0.00;;;;;;;;;;5091058;28;20142;-82
2023/01/14 00:41:09;;;;;;;0.00;0.00;;;;;;;;;;5092575;28;20121;-82
2023/01/14 00:43:36;;;;;;;0.00;0.00;;;;;;;;;;5091837;28;20040;-82
2023/01/14 00:46:02;;;;;;;0.00;0.00;;;;;;;;;;5094625;28;20498;-83
2023/01/14 00:48:28;;;;;;;0.00;0.00;;;;;;;;;;5094496;28;20485;-82
2023/01/14 00:50:54;;;;;;;0.00;0.00;;;;;;;;;;5094748;28;20090;-82
2023/01/14 00:53:20;;;;;;;0.00;0.00;;;;;;;;;;5095746;28;20123;-82
2023/01/14 00:55:46;;;;;;;0.00;0.00;;;;;;;;;;5094515;28;20055;-82
2023/01/14 00:58:12;;;;;;;0.00;0.00;;;;;;;;;;5094703;28;20040;-82
2023/01/14 01:00:38;;;;;;;0.00;0.00;;;;;;;;;;5094464;28;20502;-82
2023/01/14 01:03:04;;;;;;;0.00;0.00;;;;;;;;;;5094159;28;20172;-82
2023/01/14 01:05:34;;;;;;;0.00;0.00;;;;;;;;;;5094511;28;20394;-82
2023/01/14 01:08:00;;;;;;;0.00;0.00;;;;;;;;;;5095328;28;20044;-82
2023/01/14 01:10:26;;;;;;;0.00;0.00;;;;;;;;;;5094280;28;20040;-82
2023/01/14 01:12:52;;;;;;;0.00;0.00;;;;;;;;;;5094485;28;20044;-82
2023/01/14 01:15:18;;;;;;;0.00;0.00;;;;;;;;;;5094269;28;20055;-82
2023/01/14 01:17:44;;;;;;;0.00;0.00;;;;;;;;;;5094189;28;20448;-82
2023/01/14 01:20:10;;;;;;;0.00;0.00;;;;;;;;;;5095040;28;20039;-82
2023/01/14 01:22:36;;;;;;;0.00;0.00;;;;;;;;;;5094065;28;20044;-82
2023/01/14 01:25:02;;;;;;;0.00;0.00;;;;;;;;;;5093669;28;20051;-82
2023/01/14 01:27:28;;;;;;;0.00;0.00;;;;;;;;;;5093908;28;20067;-82
2023/01/14 01:29:54;;;;;;;0.00;0.00;;;;;;;;;;5095042;28;20039;-82
2023/01/14 01:32:21;;;;;;;0.00;0.00;;;;;;;;;;5077304;28;20040;-82
2023/01/14 01:34:47;;;;;;;0.00;0.00;;;;;;;;;;5093660;28;20056;-82
2023/01/14 01:37:14;;;;;;;0.00;0.00;;;;;;;;;;5077358;28;20048;-82
2023/01/14 01:39:40;;;;;;;0.00;0.00;;;;;;;;;;5076739;28;20150;-82
2023/01/14 01:42:10;;;;;;;0.00;0.00;;;;;;;;;;5093846;28;20154;-83
2023/01/14 01:44:36;;;;;;;0.00;0.00;;;;;;;;;;5076291;28;20048;-82
2023/01/14 01:47:01;;;;;;;0.00;0.00;;;;;;;;;;5093556;28;20046;-82
2023/01/14 01:49:30;;;;;;;0.00;0.00;;;;;;;;;;5093219;28;20067;-82
2023/01/14 01:52:01;;;;;;;0.00;0.00;;;;;;;;;;5093486;28;20044;-82
2023/01/14 01:54:31;;;;;;;0.00;0.00;;;;;;;;;;5093090;28;20043;-82
2023/01/14 01:56:57;;;;;;;0.00;0.00;;;;;;;;;;5094886;28;20046;-82
2023/01/14 01:59:25;;;;;;;0.00;0.00;;;;;;;;;;5093337;28;20063;-82
2023/01/14 02:01:53;;;;;;;0.00;0.00;;;;;;;;;;5093574;28;20044;-82
2023/01/14 02:04:19;;;;;;;0.00;0.00;;;;;;;;;;5092892;28;20054;-81
2023/01/14 02:06:45;;;;;;;0.00;0.00;;;;;;;;;;5093216;28;20044;-82
2023/01/14 02:09:12;;;;;;;0.00;0.00;;;;;;;;;;5076275;28;20040;-82
2023/01/14 02:11:56;;;;;;;0.00;0.00;;;;;;;;;;5093322;28;20429;-82
2023/01/14 02:14:31;;;;;;;0.00;0.00;;;;;;;;;;5092607;28;20055;-82
2023/01/14 02:17:13;;;;;;;0.00;0.00;;;;;;;;;;5093329;28;20059;-82
2023/01/14 02:19:42;;;;;;;0.00;0.00;;;;;;;;;;5092694;28;20418;-82
2023/01/14 02:22:27;;;;;;;0.00;0.00;;;;;;;;;;5093141;28;20066;-83
2023/01/14 02:25:04;;;;;;;0.00;0.00;;;;;;;;;;5092330;28;20399;-82
2023/01/14 02:27:39;;;;;;;0.00;0.00;;;;;;;;;;5093164;28;20043;-82
2023/01/14 02:30:18;;;;;;;0.10;0.10;;;;;;;;;;5092625;28;20502;-82
2023/01/14 02:32:47;;;;;;;0.00;0.00;;;;;;;;;;5094244;28;20394;-82
2023/01/14 02:35:25;;;;;;;0.00;0.00;;;;;;;;;;5092276;28;20059;-82
2023/01/14 02:37:54;;;;;;;0.00;0.00;;;;;;;;;;5092699;28;20085;-82
2023/01/14 02:40:32;;;;;;;0.00;0.00;;;;;;;;;;5093563;28;20111;-82
2023/01/14 02:45:48;;;;;;;0.00;0.00;;;;;;;;;;5092222;28;20051;-82
2023/01/14 02:48:15;;;;;;;0.00;0.00;;;;;;;;;;5092385;28;20491;-82
2023/01/14 02:50:42;;;;;;;0.00;0.00;;;;;;;;;;5092520;28;20069;-82
2023/01/14 02:53:08;;;;;;;0.00;0.00;;;;;;;;;;5092339;28;20048;-82
2023/01/14 02:55:35;;;;;;;0.00;0.00;;;;;;;;;;5091952;28;20051;-82
2023/01/14 02:58:20;;;;;;;3.40;0.20;;;;;;;;;;5075418;28;20046;-82
2023/01/14 03:00:52;;;;;;;0.00;0.00;;;;;;;;;;5093492;28;20100;-82
2023/01/14 03:03:26;;;;;;;0.00;0.00;;;;;;;;;;5092298;28;20075;-82
2023/01/14 03:06:04;;;;;;;0.00;0.00;;;;;;;;;;5093104;28;20047;-82
2023/01/14 03:08:33;;;;;;;0.00;0.00;;;;;;;;;;5092065;28;20085;-81
2023/01/14 03:11:01;;;;;;;0.00;0.00;;;;;;;;;;5092100;28;20047;-81
2023/01/14 03:13:31;;;;;;;0.00;0.00;;;;;;;;;;5093388;28;20397;-82
2023/01/14 03:16:04;;;;;;;0.00;0.00;;;;;;;;;;5091772;28;20040;-82
2023/01/14 03:18:38;;;;;;;0.00;0.00;;;;;;;;;;5092324;28;20483;-82
2023/01/14 03:21:07;;;;;;;0.00;0.00;;;;;;;;;;5091628;28;20499;-82
2023/01/14 03:23:36;;;;;;;0.00;0.00;;;;;;;;;;5093260;28;20289;-82
2023/01/14 03:26:06;;;;;;;0.00;0.00;;;;;;;;;;5092743;28;20495;-82
2023/01/14 03:28:35;;;;;;;0.00;0.00;;;;;;;;;;5075273;28;20039;-82
2023/01/14 03:31:02;;;;;;;0.00;0.00;;;;;;;;;;5092852;28;20040;-82
2023/01/14 03:33:32;;;;;;;0.00;0.00;;;;;;;;;;5092009;28;20171;-82
2023/01/14 03:35:58;;;;;;;0.00;0.00;;;;;;;;;;5091325;28;20060;-83
2023/01/14 03:38:27;;;;;;;0.00;0.00;;;;;;;;;;5091719;28;20498;-82
2023/01/14 03:40:54;;;;;;;0.00;0.00;;;;;;;;;;5091484;28;20138;-82
2023/01/14 03:43:25;;;;;;;0.00;0.00;;;;;;;;;;5091677;28;20055;-82
2023/01/14 03:45:52;;;;;;;0.00;0.00;;;;;;;;;;5091617;28;20370;-82
2023/01/14 03:48:18;;;;;;;0.00;0.00;;;;;;;;;;5092911;28;20158;-82
2023/01/14 03:50:44;;;;;;;0.00;0.00;;;;;;;;;;5074503;28;20044;-82
2023/01/14 03:53:10;;;;;;;0.00;0.00;;;;;;;;;;5093291;28;20116;-82
2023/01/14 03:55:43;;;;;;;0.10;0.10;;;;;;;;;;5091190;28;20079;-82
2023/01/14 03:58:23;;;;;;;0.00;0.00;;;;;;;;;;5092280;28;20507;-82
2023/01/14 04:00:53;;;;;;;0.00;0.00;;;;;;;;;;5092942;28;20115;-82
2023/01/14 04:03:20;;;;;;;0.00;0.00;;;;;;;;;;5091249;28;20101;-82
2023/01/14 04:05:46;;;;;;;0.32;0.32;;;;;;;;;;5091449;28;20548;-82
2023/01/14 04:08:12;;;;;;;0.00;0.00;;;;;;;;;;5091462;28;20475;-82
2023/01/14 04:10:38;;;;;;;0.00;0.00;;;;;;;;;;5092666;28;20043;-82
2023/01/14 04:15:48;;;;;;;0.00;0.00;;;;;;;;;;5092565;28;20052;-82
2023/01/14 04:18:14;;;;;;;0.00;0.00;;;;;;;;;;5091578;28;20587;-82
2023/01/14 04:20:40;;;;;;;0.00;0.00;;;;;;;;;;5095024;28;20050;-82
2023/01/14 04:23:06;;;;;;;0.00;0.00;;;;;;;;;;5095142;28;20036;-82
2023/01/14 04:25:32;;;;;;;0.00;0.00;;;;;;;;;;5094780;28;20043;-82
2023/01/14 04:27:58;;;;;;;0.00;0.00;;;;;;;;;;5095098;28;20048;-82
2023/01/14 04:30:24;;;;;;;0.00;0.00;;;;;;;;;;5094845;28;20400;-82
2023/01/14 04:32:50;;;;;;;0.00;0.00;;;;;;;;;;5095156;28;20119;-83
2023/01/14 04:35:16;;;;;;;0.00;0.00;;;;;;;;;;5095740;28;20059;-82
2023/01/14 04:37:42;;;;;;;0.00;0.00;;;;;;;;;;5096200;28;20063;-82
2023/01/14 04:40:09;;;;;;;0.00;0.00;;;;;;;;;;5094891;28;20067;-82
2023/01/14 04:42:35;;;;;;;0.00;0.00;;;;;;;;;;5094851;28;20048;-82
2023/01/14 04:45:02;;;;;;;0.00;0.00;;;;;;;;;;5094506;28;20067;-82
2023/01/14 04:47:28;;;;;;;0.00;0.00;;;;;;;;;;5094762;28;20391;-82
2023/01/14 04:49:55;;;;;;;0.00;0.00;;;;;;;;;;5095104;28;20353;-82
2023/01/14 04:52:23;;;;;;;0.05;0.05;;;;;;;;;;5094386;28;20078;-82
2023/01/14 04:54:49;;;;;;;0.00;0.00;;;;;;;;;;5094755;28;20084;-82
2023/01/14 04:57:15;;;;;;;0.10;0.10;;;;;;;;;;5094197;28;20075;-82
2023/01/14 04:59:41;;;;;;;0.00;0.00;;;;;;;;;;5094506;28;20487;-82
2023/01/14 05:02:07;;;;;;;0.00;0.00;;;;;;;;;;5094363;28;20040;-82
2023/01/14 05:04:33;;;;;;;0.00;0.00;;;;;;;;;;5094530;28;20040;-82
2023/01/14 05:07:01;;;;;;;0.00;0.00;;;;;;;;;;5094091;28;20491;-82
2023/01/14 05:09:27;;;;;;;0.00;0.00;;;;;;;;;;5094317;28;20055;-82
2023/01/14 05:11:53;;;;;;;0.00;0.00;;;;;;;;;;5094119;28;20088;-82
2023/01/14 05:14:19;;;;;;;0.00;0.00;;;;;;;;;;5094054;28;20500;-82
2023/01/14 05:16:45;;;;;;;0.00;0.00;;;;;;;;;;5094008;28;20044;-82
2023/01/14 05:19:11;;;;;;;0.00;0.00;;;;;;;;;;5094102;28;20173;-82
2023/01/14 05:21:37;;;;;;;0.00;0.00;;;;;;;;;;5094111;28;20399;-82
2023/01/14 05:24:03;;;;;;;0.00;0.00;;;;;;;;;;5076985;28;20047;-83
2023/01/14 05:26:29;;;;;;;0.00;0.00;;;;;;;;;;5094135;28;20122;-85
2023/01/14 05:28:55;;;;;;;0.00;0.00;;;;;;;;;;5090613;28;20059;-83
2023/01/14 05:31:21;;;;;;;0.00;0.00;;;;;;;;;;5094970;28;20121;-83
2023/01/14 05:33:47;;;;;;;0.00;0.00;;;;;;;;;;5076890;28;20036;-82
2023/01/14 05:36:13;;;;;;;0.00;0.00;;;;;;;;;;5093555;28;20457;-83
2023/01/14 05:38:39;;;;;;;0.00;0.00;;;;;;;;;;5094201;28;20052;-82
2023/01/14 05:41:05;;;;;;;0.00;0.00;;;;;;;;;;5099144;28;20059;-82
2023/01/14 05:46:17;;;;;;;0.00;0.00;;;;;;;;;;5094521;28;20487;-83
2023/01/14 05:48:43;;;;;;;0.00;0.00;;;;;;;;;;5094581;28;20043;-83
2023/01/14 05:51:11;;;;;;;0.00;0.00;;;;;;;;;;5093109;28;20083;-83
2023/01/14 05:53:37;;;;;;;0.00;0.00;;;;;;;;;;5076921;28;20131;-83
2023/01/14 05:56:03;;;;;;;0.00;0.00;;;;;;;;;;5105628;28;20044;-83
2023/01/14 05:58:29;;;;;;;0.00;0.00;;;;;;;;;;5093478;28;20135;-82
2023/01/14 06:06:26;;;;;;;0.00;0.00;;;;;;;;;;5094188;28;20051;-83
2023/01/14 06:08:56;;;;;;;0.00;0.00;;;;;;;;;;5093046;28;20105;-82
2023/01/14 06:11:23;;;;;;;0.00;0.00;;;;;;;;;;5092841;28;20456;-82
2023/01/14 06:13:50;;;;;;;0.00;0.00;;;;;;;;;;5092642;28;20044;-82
2023/01/14 06:16:16;;;;;;;0.00;0.00;;;;;;;;;;5092945;28;20092;-83
2023/01/14 06:18:42;;;;;;;0.00;0.00;;;;;;;;;;5093198;28;20044;-83
2023/01/14 06:21:19;;;;;;;0.00;0.00;;;;;;;;;;5094839;28;20055;-85
2023/01/14 06:23:46;;;;;;;0.00;0.00;;;;;;;;;;5113211;28;20044;-83
2023/01/14 06:26:13;;;;;;;0.00;0.00;;;;;;;;;;5112911;28;20042;-83
2023/01/14 06:28:40;;;;;;;0.00;0.00;;;;;;;;;;5096464;28;20055;-83
2023/01/14 06:31:10;;;;;;;0.00;0.00;;;;;;;;;;5112862;28;20043;-83
2023/01/14 06:33:36;;;;;;;0.00;0.00;;;;;;;;;;5114230;28;20063;-84
2023/01/14 06:36:02;;;;;;;0.20;0.17;;;;;;;;;;5112610;28;20488;-83
2023/01/14 06:38:28;;;;;;;0.00;0.00;;;;;;;;;;5112856;28;20059;-84
2023/01/14 06:40:58;;;;;;;0.00;0.00;;;;;;;;;;5112522;28;20047;-84
2023/01/14 06:43:24;;;;;;;0.00;0.00;;;;;;;;;;5113947;28;20043;-83
2023/01/14 06:45:54;;;;;;;0.00;0.00;;;;;;;;;;5113876;28;20059;-83
2023/01/14 06:48:20;;;;;;;0.00;0.00;;;;;;;;;;5112342;28;20100;-84
2023/01/14 06:50:47;;;;;;;0.00;0.00;;;;;;;;;;5112726;28;20043;-83
2023/01/14 06:53:13;;;;;;;0.00;0.00;;;;;;;;;;5112576;28;20234;-84
2023/01/14 06:55:39;;;;;;;0.00;0.00;;;;;;;;;;5112460;28;20538;-83
2023/01/14 06:58:05;;;;;;;0.00;0.00;;;;;;;;;;5113715;28;20039;-83
2023/01/14 07:00:31;;;;;;;0.00;0.00;;;;;;;;;;5112461;28;20114;-83
2023/01/14 07:02:57;;;;;;;0.00;0.00;;;;;;;;;;5112356;28;20035;-83
2023/01/14 07:05:23;;;;;;;0.00;0.00;;;;;;;;;;5112258;28;20039;-83
2023/01/14 07:07:49;;;;;;;0.00;0.00;;;;;;;;;;5112105;28;20489;-83
2023/01/14 07:10:16;;;;;;;0.00;0.00;;;;;;;;;;5112223;28;20172;-84
2023/01/14 07:12:47;;;;;;;0.55;0.52;;;;;;;;;;5112302;28;20039;-83
2023/01/14 07:15:13;;;;;;;0.00;0.00;;;;;;;;;;5112356;28;20092;-83
2023/01/14 07:17:39;;;;;;;0.00;0.00;;;;;;;;;;5112152;28;20051;-83
2023/01/14 07:20:06;;;;;;;0.40;0.20;;;;;;;;;;5112139;28;20054;-83
2023/01/14 07:22:32;;;;;;;0.00;0.00;;;;;;;;;;5112044;28;20039;-83
2023/01/14 07:25:01;;;;;;;0.00;0.00;;;;;;;;;;5111646;28;20522;-83
2023/01/14 07:27:27;;;;;;;0.00;0.00;;;;;;;;;;5111847;28;20046;-83
2023/01/14 07:29:53;;;;;;;0.00;0.00;;;;;;;;;;5094904;28;20046;-84
2023/01/14 07:32:19;;;;;;;0.00;0.00;;;;;;;;;;5111671;28;20075;-84
2023/01/14 07:34:45;;;;;;;0.00;0.00;;;;;;;;;;5094565;28;20059;-84
2023/01/14 07:37:11;;;;;;;0.00;0.00;;;;;;;;;;5110897;28;20044;-83
2023/01/14 07:39:37;;;;;;;0.00;0.00;;;;;;;;;;5103991;28;20760;-83
2023/01/14 07:42:03;;;;;;;0.00;0.00;;;;;;;;;;5090806;28;20510;-82
2023/01/14 07:44:29;;;;;;;0.00;0.00;;;;;;;;;;5090834;28;20048;-83
2023/01/14 07:46:55;;;;;;;0.00;0.00;;;;;;;;;;5090992;28;20043;-82
2023/01/14 07:49:21;;;;;;;0.00;0.00;;;;;;;;;;5089957;28;20035;-81
2023/01/14 07:51:48;;;;;;;0.00;0.00;;;;;;;;;;5101048;28;20055;-83
2023/01/14 07:54:14;;;;;;;0.00;0.00;;;;;;;;;;5095468;28;20597;-82
2023/01/14 07:56:40;;;;;;;0.00;0.00;;;;;;;;;;5115356;28;20114;-84
2023/01/14 07:59:06;;;;;;;0.00;0.00;;;;;;;;;;5115192;28;20053;-86
2023/01/14 08:01:32;;;;;;;0.00;0.00;;;;;;;;;;5115462;28;20047;-81
2023/01/14 08:03:58;;;;;;;0.00;0.00;;;;;;;;;;5114944;28;20051;-82
2023/01/14 08:06:24;;;;;;;0.00;0.00;;;;;;;;;;5115271;28;20043;-83
2023/01/14 08:08:50;;;;;;;0.00;0.00;;;;;;;;;;5115304;28;20032;-82
2023/01/14 08:11:16;;;;;;;0.00;0.00;;;;;;;;;;5111751;28;20501;-82
2023/01/14 08:13:42;;;;;;;0.00;0.00;;;;;;;;;;5094721;28;20043;-82
2023/01/14 08:16:09;;;;;;;0.00;0.00;;;;;;;;;;5094665;28;20564;-83
2023/01/14 08:18:35;;;;;;;0.00;0.00;;;;;;;;;;5094535;28;20572;-82
2023/01/14 08:21:05;;;;;;;0.00;0.00;;;;;;;;;;5112696;28;20092;-83
2023/01/14 08:23:32;;;;;;;0.00;0.00;;;;;;;;;;5116302;28;20105;-82
2023/01/14 08:26:02;;;;;;;0.00;0.00;;;;;;;;;;5097861;28;20040;-82
2023/01/14 08:28:28;;;;;;;0.00;0.00;;;;;;;;;;5115875;28;20035;-83
2023/01/14 08:31:08;;;;;;;0.10;0.10;;;;;;;;;;5114723;28;20044;-82
2023/01/14 08:33:34;;;;;;;0.00;0.00;;;;;;;;;;5114706;28;20040;-82
2023/01/14 08:36:01;;;;;;;0.00;0.00;;;;;;;;;;5114528;28;20052;-83
2023/01/14 08:38:27;;;;;;;0.00;0.00;;;;;;;;;;5131648;27;20503;-82
2023/01/14 08:40:54;;;;;;;0.00;0.00;;;;;;;;;;5114939;28;20114;-82
2023/01/14 08:43:20;;;;;;;0.00;0.00;;;;;;;;;;5114449;28;20170;-82
2023/01/14 08:45:46;;;;;;;1.55;0.52;;;;;;;;;;5114797;28;20114;-82
2023/01/14 08:48:12;;;;;;;0.00;0.00;;;;;;;;;;5114328;28;20601;-83
2023/01/14 08:50:38;;;;;;;1.35;0.32;;;;;;;;;;5114557;28;20173;-83
2023/01/14 08:53:05;;;;;;;0.00;0.00;;;;;;;;;;5097231;28;20371;-82
2023/01/14 08:55:31;;;;;;;0.00;0.00;;;;;;;;;;5114442;28;20044;-83
2023/01/14 08:57:57;;;;;;;0.00;0.00;;;;;;;;;;5114444;28;20055;-83
2023/01/14 09:00:24;;;;;;;0.00;0.00;;;;;;;;;;5114457;28;20188;-83
2023/01/14 09:02:50;;;;;;;0.00;0.00;;;;;;;;;;5088591;28;20047;-84
2023/01/14 09:05:16;;;;;;;0.00;0.00;;;;;;;;;;5106855;28;20046;-82
2023/01/14 09:18:41;;;;;;;0.52;0.10;;;;;;;;;;5115125;28;20109;-83
2023/01/14 09:21:08;;;;;;;0.00;0.00;;;;;;;;;;5114018;28;20039;-83
2023/01/14 09:23:34;;;;;;;0.00;0.00;;;;;;;;;;5113585;28;20066;-83
2023/01/14 09:26:00;;;;;;;0.00;0.00;;;;;;;;;;5113921;28;20479;-82
2023/01/14 09:28:26;;;;;;;0.00;0.00;;;;;;;;;;5114969;28;20039;-82
2023/01/14 09:30:52;;;;;;;0.00;0.00;;;;;;;;;;5113690;28;20546;-82
2023/01/14 09:33:18;;;;;;;0.00;0.00;;;;;;;;;;5110170;28;20067;-86
2023/01/14 09:35:44;;;;;;;0.28;0.10;;;;;;;;;;5084305;28;20129;-84
2023/01/14 09:38:09;;;;;;;0.00;0.00;;;;;;;;;;5076182;28;20040;-84
2023/01/14 09:40:37;;;;;;;0.00;0.00;;;;;;;;;;5076437;28;20051;-83
2023/01/14 09:43:05;;;;;;;0.00;0.00;;;;;;;;;;5097307;28;20076;-84
2023/01/14 09:45:32;;;;;;;0.70;0.10;;;;;;;;;;5090389;28;20047;-84
2023/01/14 09:48:07;;;;;;;0.00;0.00;;;;;;;;;;5113356;28;20071;-83
2023/01/14 09:50:36;;;;;;;0.00;0.00;;;;;;;;;;5113490;28;20127;-83
2023/01/14 09:53:20;;;;;;;0.00;0.00;;;;;;;;;;5096297;28;20048;-83
2023/01/14 09:55:52;;;;;;;0.00;0.00;;;;;;;;;;5113609;28;20367;-83
2023/01/14 09:58:33;;;;;;;0.00;0.00;;;;;;;;;;5114340;28;20534;-83
2023/01/14 10:01:02;;;;;;;0.65;0.30;;;;;;;;;;5114539;28;20122;-84
2023/01/14 10:03:52;;;;;;;0.20;0.10;;;;;;;;;;5112794;28;20041;-82
2023/01/14 10:06:18;;;;;;;0.00;0.00;;;;;;;;;;5113384;28;20050;-82
2023/01/14 10:08:51;;;;;;;0.00;0.00;;;;;;;;;;5114227;28;20096;-83
2023/01/14 10:11:18;;;;;;;0.03;0.00;;;;;;;;;;5112857;28;20118;-84
2023/01/14 10:13:53;;;;;;;0.22;0.20;;;;;;;;;;5112865;28;20483;-82
2023/01/14 10:16:22;;;;;;;0.00;0.00;;;;;;;;;;5111746;28;20082;-83
2023/01/14 10:18:55;;;;;;;0.00;0.00;;;;;;;;;;5112857;28;20039;-82
2023/01/14 10:21:35;;;;;;;0.00;0.00;;;;;;;;;;5112899;28;20082;-82
2023/01/14 10:24:01;;;;;;;0.00;0.00;;;;;;;;;;5112245;28;20072;-83
2023/01/14 10:26:31;;;;;;;0.00;0.00;;;;;;;;;;5114143;28;20453;-82
2023/01/14 10:28:59;;;;;;;0.00;0.00;;;;;;;;;;5112818;28;20040;-82
2023/01/14 10:31:27;;;;;;;0.00;0.00;;;;;;;;;;5112729;28;20483;-82
2023/01/14 10:33:53;;;;;;;0.00;0.00;;;;;;;;;;5113532;28;20051;-82
2023/01/14 10:36:22;;;;;;;0.00;0.00;;;;;;;;;;5112802;28;20055;-82
2023/01/14 10:38:48;;;;;;;0.00;0.00;;;;;;;;;;5111312;28;20443;-83
2023/01/14 10:41:14;;;;;;;0.00;0.00;;;;;;;;;;5105377;28;20039;-83
2023/01/14 10:43:42;;;;;;;0.00;0.00;;;;;;;;;;5099022;28;20423;-83
2023/01/14 10:46:19;;;;;;;0.00;0.00;;;;;;;;;;5111744;27;20122;-83
2023/01/14 10:48:50;;;;;;;0.00;0.00;;;;;;;;;;5121725;27;20037;-83
2023/01/14 10:51:36;;;;;;;0.00;0.00;;;;;;;;;;5111333;27;20038;-84
2023/01/14 10:54:12;;;;;;;0.00;0.00;;;;;;;;;;5083384;28;20592;-83
2023/01/14 10:56:45;;;;;;;0.00;0.00;;;;;;;;;;5095522;27;20046;-84
2023/01/14 10:59:22;;;;;;;0.00;0.00;;;;;;;;;;5103549;27;20043;-84
2023/01/14 11:01:48;;;;;;;0.00;0.00;;;;;;;;;;5107018;27;20043;-85
2023/01/14 11:04:14;;;;;;;0.00;0.00;;;;;;;;;;5087622;28;20551;-83
2023/01/14 11:06:40;;;;;;;0.00;0.00;;;;;;;;;;5111922;28;20043;-84
2023/01/14 11:09:15;;;;;;;0.30;0.30;;;;;;;;;;5111403;28;20044;-83
2023/01/14 11:11:42;;;;;;;0.00;0.00;;;;;;;;;;5111839;28;20036;-84
2023/01/14 11:14:18;;;;;;;0.08;0.08;;;;;;;;;;5103986;27;20043;-82
2023/01/14 11:16:44;;;;;;;0.00;0.00;;;;;;;;;;5110955;28;20044;-84
2023/01/14 11:19:19;;;;;;;0.00;0.00;;;;;;;;;;5111110;28;20040;-83
2023/01/14 11:21:56;;;;;;;0.20;0.08;;;;;;;;;;5111746;28;20374;-83
2023/01/14 11:24:21;;;;;;;0.00;0.00;;;;;;;;;;5111899;28;20486;-83
2023/01/14 11:26:47;;;;;;;0.00;0.00;;;;;;;;;;5112367;28;20061;-83
2023/01/14 11:29:21;;;;;;;0.00;0.00;;;;;;;;;;5111673;28;20118;-82
2023/01/14 11:31:48;;;;;;;0.00;0.00;;;;;;;;;;5112139;28;20064;-83
2023/01/14 11:34:21;;;;;;;0.00;0.00;;;;;;;;;;5111421;28;20035;-84
2023/01/14 11:36:47;;;;;;;0.00;0.00;;;;;;;;;;5111746;28;20067;-83
2023/01/14 11:39:18;;;;;;;0.00;0.00;;;;;;;;;;5111571;28;20036;-83
2023/01/14 11:41:44;;;;;;;0.63;0.32;;;;;;;;;;5111518;28;20111;-84
2023/01/14 11:44:10;;;;;;;0.10;0.10;;;;;;;;;;5111476;28;20215;-83
2023/01/14 11:46:42;;;;;;;0.00;0.00;;;;;;;;;;5111422;28;20519;-84
2023/01/14 11:49:21;;;;;;;0.00;0.00;;;;;;;;;;5111816;28;20059;-83
2023/01/14 11:51:57;;;;;;;0.00;0.00;;;;;;;;;;5111334;28;20064;-83
2023/01/14 11:54:23;;;;;;;0.00;0.00;;;;;;;;;;5112108;28;20106;-83
2023/01/14 11:56:49;;;;;;;0.00;0.00;;;;;;;;;;5111545;28;20047;-83
2023/01/14 11:59:36;;;;;;;0.00;0.00;;;;;;;;;;5111412;28;20040;-83
2023/01/14 12:02:21;;;;;;;0.00;0.00;;;;;;;;;;5112867;28;20039;-83
2023/01/14 12:05:05;;;;;;;0.00;0.00;;;;;;;;;;5110838;28;20058;-83
2023/01/14 12:07:43;;;;;;;0.00;0.00;;;;;;;;;;5111633;28;20039;-83
2023/01/14 12:10:15;;;;;;;0.00;0.00;;;;;;;;;;5111141;28;20362;-83
2023/01/14 12:18:43;;;;;;;0.05;0.00;;;;;;;;;;5111064;28;20047;-85
2023/01/14 12:21:09;;;;;;;0.00;0.00;;;;;;;;;;5111174;28;20397;-84
2023/01/14 12:23:59;;;;;;;0.00;0.00;;;;;;;;;;5111093;28;20048;-84
2023/01/14 12:26:29;;;;;;;0.00;0.00;;;;;;;;;;5103109;28;20114;-84
2023/01/14 12:28:59;;;;;;;0.00;0.00;;;;;;;;;;5111342;28;20539;-83
2023/01/14 12:31:33;;;;;;;0.00;0.00;;;;;;;;;;5110795;28;20567;-84
2023/01/14 12:34:16;;;;;;;0.00;0.00;;;;;;;;;;5111012;28;20075;-83
2023/01/14 12:36:46;;;;;;;0.00;0.00;;;;;;;;;;5110914;28;20164;-84
2023/01/14 12:47:44;;;;;;;0.00;0.00;;;;;;;;;;5114828;28;20040;-84
2023/01/14 12:50:12;;;;;;;0.00;0.00;;;;;;;;;;5115857;28;20042;-83
2023/01/14 12:52:40;;;;;;;0.00;0.00;;;;;;;;;;5114626;28;20044;-83
2023/01/14 12:55:07;;;;;;;0.00;0.00;;;;;;;;;;5114234;28;20067;-83
2023/01/14 12:57:37;;;;;;;0.00;0.00;;;;;;;;;;5114434;28;20096;-84
2023/01/14 13:00:06;;;;;;;0.00;0.00;;;;;;;;;;5114367;28;20482;-84
2023/01/14 13:02:43;;;;;;;0.00;0.00;;;;;;;;;;5114269;28;20063;-83
2023/01/14 13:05:11;;;;;;;0.00;0.00;;;;;;;;;;5114087;28;20126;-83
2023/01/14 13:07:39;;;;;;;0.00;0.00;;;;;;;;;;5114520;28;20039;-84
2023/01/14 13:10:08;;;;;;;0.00;0.00;;;;;;;;;;5097614;28;20047;-84
2023/01/14 13:12:46;;;;;;;0.00;0.00;;;;;;;;;;5114045;28;20071;-84
2023/01/14 13:15:19;;;;;;;0.00;0.00;;;;;;;;;;5114049;28;20047;-84
2023/01/14 13:17:52;;;;;;;0.00;0.00;;;;;;;;;;5113911;28;20040;-84
2023/01/14 13:20:21;;;;;;;0.00;0.00;;;;;;;;;;5113776;28;20118;-83
2023/01/14 13:22:48;;;;;;;0.00;0.00;;;;;;;;;;5113940;28;20195;-84
2023/01/14 13:25:17;;;;;;;0.00;0.00;;;;;;;;;;5115003;28;20048;-84
2023/01/14 13:27:43;;;;;;;0.00;0.00;;;;;;;;;;5113730;28;20046;-83
2023/01/14 13:30:18;;;;;;;0.00;0.00;;;;;;;;;;5115135;28;20032;-83
2023/01/14 13:33:06;;;;;;;0.00;0.00;;;;;;;;;;5113905;28;20433;-83
2023/01/14 13:35:32;;;;;;;0.00;0.00;;;;;;;;;;5114651;28;20058;-83
2023/01/14 13:37:59;;;;;;;0.00;0.00;;;;;;;;;;5114745;28;20140;-83
2023/01/14 13:40:27;;;;;;;0.00;0.00;;;;;;;;;;5096765;28;20043;-83
2023/01/14 13:43:06;;;;;;;0.00;0.00;;;;;;;;;;5114374;28;20044;-83
2023/01/14 13:45:33;;;;;;;0.00;0.00;;;;;;;;;;5096734;28;20148;-84
2023/01/14 13:48:02;;;;;;;0.00;0.00;;;;;;;;;;5113934;28;20046;-83
2023/01/14 13:50:28;;;;;;;0.00;0.00;;;;;;;;;;5113675;28;20041;-82
2023/01/14 13:52:56;;;;;;;0.00;0.00;;;;;;;;;;5096623;28;20035;-84
2023/01/14 13:55:24;;;;;;;0.00;0.00;;;;;;;;;;5113858;28;20043;-89
2023/01/14 13:57:52;;;;;;;0.00;0.00;;;;;;;;;;5114031;28;20379;-84
2023/01/14 14:00:18;;;;;;;0.00;0.00;;;;;;;;;;5113706;28;20043;-83
2023/01/14 14:02:44;;;;;;;0.00;0.00;;;;;;;;;;5114967;28;20043;-85
2023/01/14 14:05:14;;;;;;;0.00;0.00;;;;;;;;;;5113528;28;20118;-84
2023/01/14 14:07:49;;;;;;;0.00;0.00;;;;;;;;;;5113692;28;20059;-84
2023/01/14 14:10:21;;;;;;;0.00;0.00;;;;;;;;;;5113851;28;20050;-84
2023/01/14 14:15:42;;;;;;;0.00;0.00;;;;;;;;;;5114786;28;20122;-83
2023/01/14 14:18:18;;;;;;;0.00;0.00;;;;;;;;;;5114598;28;20036;-83
2023/01/14 14:20:44;;;;;;;0.00;0.00;;;;;;;;;;5113754;28;20048;-83
2023/01/14 14:23:31;;;;;;;0.00;0.00;;;;;;;;;;5113680;28;20035;-85
2023/01/14 14:25:58;;;;;;;0.00;0.00;;;;;;;;;;5111540;28;20036;-87
2023/01/14 14:28:25;;;;;;;0.00;0.00;;;;;;;;;;5096658;28;20127;-85
2023/01/14 14:30:55;;;;;;;0.00;0.00;;;;;;;;;;5110384;28;20039;-89
2023/01/14 14:33:36;;;;;;;0.00;0.00;;;;;;;;;;5093979;28;20032;-91
2023/01/14 14:36:22;;;;;;;0.00;0.00;;;;;;;;;;5093573;28;20059;-91
2023/01/14 14:38:51;;;;;;;0.00;0.00;;;;;;;;;;5109709;28;20039;-87
2023/01/14 14:41:29;;;;;;;0.00;0.00;;;;;;;;;;5113613;28;20039;-86
2023/01/14 14:43:57;;;;;;;0.00;0.00;;;;;;;;;;5106343;28;20039;-85
2023/01/14 14:46:25;;;;;;;0.00;0.00;;;;;;;;;;5112087;28;20074;-85
2023/01/14 14:48:51;;;;;;;0.00;0.00;;;;;;;;;;5095984;28;20035;-85
2023/01/14 14:51:28;;;;;;;0.00;0.00;;;;;;;;;;5113486;28;20023;-84
2023/01/14 14:53:54;;;;;;;0.00;0.00;;;;;;;;;;5112086;28;20390;-86
2023/01/14 14:56:21;;;;;;;0.00;0.00;;;;;;;;;;5113424;28;20035;-84
2023/01/14 14:58:50;;;;;;;0.00;0.00;;;;;;;;;;5112556;28;20114;-84
2023/01/14 15:01:16;;;;;;;0.00;0.00;;;;;;;;;;5113725;28;20039;-85
2023/01/14 15:03:44;;;;;;;0.00;0.00;;;;;;;;;;5111755;28;20043;-85
2023/01/14 15:06:12;;;;;;;0.00;0.00;;;;;;;;;;5095499;28;20047;-84
2023/01/14 15:08:42;;;;;;;0.00;0.00;;;;;;;;;;5112223;28;20069;-85
2023/01/14 15:11:10;;;;;;;0.00;0.00;;;;;;;;;;5112372;28;20479;-84
2023/01/14 15:13:43;;;;;;;0.00;0.00;;;;;;;;;;5095335;28;20055;-85
2023/01/14 15:16:09;;;;;;;0.00;0.00;;;;;;;;;;5112297;28;20114;-85
2023/01/14 15:18:37;;;;;;;0.00;0.00;;;;;;;;;;5111951;28;20491;-84
2023/01/14 15:21:04;;;;;;;0.00;0.00;;;;;;;;;;5112554;28;20078;-86
2023/01/14 15:23:31;;;;;;;0.00;0.00;;;;;;;;;;5111900;28;20047;-85
2023/01/14 15:25:57;;;;;;;0.00;0.00;;;;;;;;;;5112181;28;20043;-86
2023/01/14 15:28:23;;;;;;;0.00;0.00;;;;;;;;;;5112055;28;20032;-85
2023/01/14 15:30:57;;;;;;;0.00;0.00;;;;;;;;;;5113427;28;20039;-84
2023/01/14 15:33:33;;;;;;;0.00;0.00;;;;;;;;;;5095217;28;20539;-83
2023/01/14 15:36:01;;;;;;;0.00;0.00;;;;;;;;;;5113130;28;20110;-84